Time;durP1;ratioP1;P1;durP2;ratioP2;P2;SDS_P1;SDS_P2;PMS_P1;PMS_P2;Temp;Humidity;BMP_temperature;BMP_pressure;BME280_temperature;BME280_humidity;BME280_pressure;Samples;Min_cycle;Max_cycle;Signal;HPM_P1;HPM_P2
2023/08/22 00:00:28;;;;;;;1.75;1.08;;;21.90;65.80;;;;;;4889258;28;20135;-22
2023/08/22 00:02:54;;;;;;;1.90;1.15;;;21.80;65.90;;;;;;4960249;28;20044;-21
2023/08/22 00:05:21;;;;;;;1.90;1.10;;;21.80;66.00;;;;;;4968706;28;20123;-22
2023/08/22 00:07:47;;;;;;;1.90;1.30;;;21.80;66.30;;;;;;4976894;28;20115;-22
2023/08/22 00:10:14;;;;;;;1.48;1.15;;;21.70;66.30;;;;;;4947152;28;20032;-22
2023/08/22 00:12:40;;;;;;;2.05;1.35;;;21.70;66.60;;;;;;4875962;28;20582;-22
2023/08/22 00:15:09;;;;;;;1.88;1.25;;;21.70;66.50;;;;;;4950846;28;20524;-21
2023/08/22 00:17:39;;;;;;;1.67;1.10;;;21.70;66.80;;;;;;4974024;28;20618;-22
2023/08/22 00:20:07;;;;;;;1.83;1.25;;;21.60;66.80;;;;;;4949747;28;20056;-22
2023/08/22 00:22:34;;;;;;;2.08;1.23;;;21.60;66.90;;;;;;4895825;28;20728;-22
2023/08/22 00:25:00;;;;;;;1.48;1.13;;;21.50;66.90;;;;;;4893500;28;20674;-22
2023/08/22 00:27:27;;;;;;;2.73;1.17;;;21.50;67.00;;;;;;4978108;28;20035;-22
2023/08/22 00:29:52;;;;;;;2.77;1.17;;;21.40;67.10;;;;;;4938350;28;20291;-21
2023/08/22 00:32:18;;;;;;;2.35;1.20;;;21.40;67.10;;;;;;4892523;28;20087;-22
2023/08/22 00:34:44;;;;;;;2.87;1.20;;;21.40;67.20;;;;;;4955296;28;20033;-23
2023/08/22 00:37:09;;;;;;;1.90;1.50;;;21.40;67.40;;;;;;4977219;28;20032;-22
2023/08/22 00:39:35;;;;;;;1.83;1.30;;;21.30;67.60;;;;;;4888891;28;20060;-23
2023/08/22 00:42:01;;;;;;;1.73;1.30;;;21.30;67.80;;;;;;4900148;29;20059;-23
2023/08/22 00:44:27;;;;;;;2.45;1.40;;;21.30;67.80;;;;;;4924910;28;20024;-23
2023/08/22 00:46:53;;;;;;;1.83;1.37;;;21.20;67.90;;;;;;4889470;28;20253;-23
2023/08/22 00:49:19;;;;;;;1.67;1.10;;;21.20;68.00;;;;;;4966657;28;20119;-23
2023/08/22 00:51:45;;;;;;;2.42;1.40;;;21.20;68.20;;;;;;4949455;28;20119;-23
2023/08/22 00:54:12;;;;;;;2.07;1.37;;;21.20;68.40;;;;;;4961037;28;20118;-23
2023/08/22 00:56:38;;;;;;;1.40;1.10;;;21.20;68.50;;;;;;4971543;28;20036;-23
2023/08/22 00:59:04;;;;;;;1.52;1.30;;;21.10;68.50;;;;;;4881918;28;20021;-23
2023/08/22 01:01:30;;;;;;;1.67;1.10;;;21.10;68.60;;;;;;4899600;28;20122;-22
2023/08/22 01:03:56;;;;;;;1.87;1.30;;;21.20;68.80;;;;;;4888479;28;20655;-23
2023/08/22 01:06:25;;;;;;;2.15;1.20;;;21.10;68.70;;;;;;4964993;28;20194;-23
2023/08/22 01:09:02;;;;;;;1.98;1.17;;;21.20;68.90;;;;;;4897592;28;20036;-23
2023/08/22 01:11:33;;;;;;;1.95;1.17;;;21.10;69.50;;;;;;4892495;28;20032;-23
2023/08/22 01:14:04;;;;;;;2.00;1.25;;;21.10;69.50;;;;;;4960354;28;21133;-23
2023/08/22 01:16:30;;;;;;;2.00;1.20;;;19.60;71.80;;;;;;4902786;29;20423;-23
2023/08/22 01:19:00;;;;;;;1.48;1.27;;;21.00;69.10;;;;;;4892207;28;21021;-23
2023/08/22 01:21:26;;;;;;;1.83;1.30;;;21.00;69.20;;;;;;4895630;28;20024;-20
2023/08/22 01:23:52;;;;;;;2.22;1.38;;;21.00;69.20;;;;;;4897962;28;20555;-20
2023/08/22 01:26:18;;;;;;;2.67;1.30;;;20.90;69.30;;;;;;4950866;28;20040;-21
2023/08/22 01:28:52;;;;;;;2.00;1.30;;;20.90;69.40;;;;;;4896835;29;20052;-20
2023/08/22 01:31:27;;;;;;;1.55;1.20;;;20.80;70.10;;;;;;4880152;28;20055;-21
2023/08/22 01:34:00;;;;;;;1.92;1.30;;;20.90;70.40;;;;;;4946021;28;20028;-20
2023/08/22 01:36:26;;;;;;;1.37;1.20;;;20.80;70.30;;;;;;4942293;28;20056;-21
2023/08/22 01:38:53;;;;;;;2.03;1.38;;;20.80;69.70;;;;;;4975161;28;20095;-20
2023/08/22 01:41:20;;;;;;;2.17;1.20;;;20.70;69.80;;;;;;4963994;28;20048;-21
2023/08/22 01:43:46;;;;;;;2.05;1.40;;;20.70;69.80;;;;;;4964032;28;20055;-20
2023/08/22 01:46:12;;;;;;;1.50;1.37;;;20.70;69.80;;;;;;4878653;28;20024;-19
2023/08/22 01:48:38;;;;;;;2.08;1.17;;;20.60;69.80;;;;;;4933106;28;20040;-20
2023/08/22 01:51:04;;;;;;;1.50;1.25;;;20.60;69.90;;;;;;4961467;28;20036;-19
2023/08/22 01:53:29;;;;;;;1.73;1.23;;;20.60;70.00;;;;;;4894389;28;20043;-20
2023/08/22 01:55:59;;;;;;;1.53;1.20;;;20.50;70.00;;;;;;4895892;28;20292;-19
2023/08/22 01:58:25;;;;;;;1.33;1.10;;;20.50;70.70;;;;;;4953774;28;20036;-19
2023/08/22 02:00:51;;;;;;;1.13;1.00;;;20.50;70.20;;;;;;4956647;28;20270;-19
2023/08/22 02:03:17;;;;;;;1.97;1.23;;;20.40;70.30;;;;;;4963043;28;20063;-19
2023/08/22 02:05:42;;;;;;;2.60;1.20;;;20.40;70.60;;;;;;4890217;28;20062;-20
2023/08/22 02:08:08;;;;;;;1.87;1.40;;;20.40;70.70;;;;;;4970249;28;20159;-19
2023/08/22 02:10:34;;;;;;;2.78;1.50;;;20.40;70.90;;;;;;4901718;28;20036;-20
2023/08/22 02:13:00;;;;;;;1.73;1.30;;;20.40;71.00;;;;;;4886403;28;20556;-19
2023/08/22 02:15:25;;;;;;;2.25;1.38;;;20.40;71.00;;;;;;4979247;28;20094;-19
2023/08/22 02:17:51;;;;;;;2.07;1.50;;;20.40;71.20;;;;;;4876472;28;20050;-19
2023/08/22 02:20:19;;;;;;;1.42;1.20;;;20.40;71.20;;;;;;4952035;28;20731;-19
2023/08/22 02:22:44;;;;;;;2.60;1.40;;;20.40;71.30;;;;;;4952575;28;20158;-20
2023/08/22 02:25:11;;;;;;;1.87;1.40;;;20.40;71.30;;;;;;4899965;28;20044;-19
2023/08/22 02:27:37;;;;;;;2.17;1.50;;;20.30;71.30;;;;;;4891531;28;20511;-19
2023/08/22 02:30:06;;;;;;;1.70;1.40;;;20.40;71.60;;;;;;4900280;28;20204;-20
2023/08/22 02:32:31;;;;;;;2.03;1.55;;;20.40;72.00;;;;;;4929265;28;20493;-20
2023/08/22 02:34:57;;;;;;;1.73;1.30;;;20.40;71.80;;;;;;4957855;28;20037;-19
2023/08/22 02:37:23;;;;;;;1.63;1.40;;;20.40;72.00;;;;;;4966703;28;20029;-19
2023/08/22 02:39:49;;;;;;;3.17;1.50;;;20.30;71.90;;;;;;4891796;28;20537;-20
2023/08/22 02:42:14;;;;;;;1.98;1.60;;;20.40;72.00;;;;;;4959547;28;20024;-18
2023/08/22 02:44:40;;;;;;;3.20;1.60;;;20.40;72.20;;;;;;4891306;28;20047;-20
2023/08/22 02:47:06;;;;;;;1.90;1.50;;;20.40;72.30;;;;;;4939197;28;20502;-19
2023/08/22 02:49:31;;;;;;;2.30;1.52;;;20.40;72.30;;;;;;4900829;29;20042;-20
2023/08/22 02:51:57;;;;;;;1.50;1.20;;;20.40;72.50;;;;;;4891406;28;20250;-19
2023/08/22 02:54:23;;;;;;;1.55;1.20;;;20.40;72.50;;;;;;4902241;28;20036;-19
2023/08/22 02:56:49;;;;;;;1.90;1.50;;;20.40;72.60;;;;;;4967443;28;20198;-19
2023/08/22 02:59:16;;;;;;;1.50;1.38;;;20.40;72.60;;;;;;4892939;28;20060;-19
2023/08/22 03:01:42;;;;;;;1.40;1.30;;;20.40;72.70;;;;;;4899795;29;20584;-20
2023/08/22 03:04:08;;;;;;;3.10;1.30;;;20.40;72.70;;;;;;4940224;28;21073;-19
2023/08/22 03:06:33;;;;;;;1.70;1.30;;;20.40;72.80;;;;;;4949436;28;20032;-19
2023/08/22 03:08:59;;;;;;;2.77;1.20;;;20.40;72.80;;;;;;4895968;28;20407;-19
2023/08/22 03:11:25;;;;;;;1.67;1.30;;;20.30;72.80;;;;;;4948293;28;20067;-19
2023/08/22 03:13:51;;;;;;;2.60;1.40;;;20.40;73.00;;;;;;4949939;28;20620;-19
2023/08/22 03:16:16;;;;;;;2.03;1.30;;;20.30;73.00;;;;;;4900018;28;20016;-19
2023/08/22 03:18:43;;;;;;;2.78;1.40;;;20.30;73.00;;;;;;4958580;28;20048;-20
2023/08/22 03:21:09;;;;;;;2.15;1.60;;;20.30;73.10;;;;;;4887097;28;20718;-19
2023/08/22 03:23:35;;;;;;;1.97;1.30;;;20.30;73.10;;;;;;4962119;28;20103;-20
2023/08/22 03:26:02;;;;;;;1.83;1.50;;;20.20;73.10;;;;;;4897732;29;20119;-20
2023/08/22 03:28:29;;;;;;;2.88;1.65;;;20.20;73.30;;;;;;4964336;28;20473;-19
2023/08/22 03:31:03;;;;;;;3.25;1.50;;;20.20;73.40;;;;;;4890252;28;20032;-19
2023/08/22 03:33:30;;;;;;;1.80;1.50;;;20.20;74.20;;;;;;4901515;29;20029;-19
2023/08/22 03:35:57;;;;;;;2.45;1.60;;;20.20;73.60;;;;;;4972235;28;20342;-19
2023/08/22 03:38:23;;;;;;;1.90;1.40;;;20.20;73.60;;;;;;4986682;28;20491;-19
2023/08/22 03:40:49;;;;;;;2.00;1.58;;;20.10;73.60;;;;;;4989333;28;20085;-19
2023/08/22 03:43:16;;;;;;;1.90;1.50;;;20.10;73.60;;;;;;4971202;28;20038;-19
2023/08/22 03:45:43;;;;;;;3.15;1.60;;;20.10;73.70;;;;;;4966422;28;20041;-20
2023/08/22 03:48:09;;;;;;;2.60;1.48;;;20.10;73.80;;;;;;4978006;28;20046;-19
2023/08/22 03:50:37;;;;;;;3.28;1.60;;;20.10;73.80;;;;;;4957879;28;20046;-20
2023/08/22 03:53:03;;;;;;;1.92;1.50;;;20.00;73.90;;;;;;4969088;28;20316;-19
2023/08/22 03:55:29;;;;;;;2.53;1.47;;;20.00;74.00;;;;;;4980617;28;20076;-19
2023/08/22 03:58:00;;;;;;;1.98;1.50;;;20.00;74.00;;;;;;4977383;28;20209;-19
2023/08/22 04:00:26;;;;;;;2.15;1.35;;;20.00;74.40;;;;;;4977768;28;20026;-19
2023/08/22 04:02:56;;;;;;;1.63;1.20;;;20.00;74.20;;;;;;4977114;28;20347;-19
2023/08/22 04:05:22;;;;;;;1.80;1.20;;;20.00;74.80;;;;;;4957752;28;20038;-19
2023/08/22 04:07:49;;;;;;;4.07;1.40;;;20.00;74.30;;;;;;4968341;28;20418;-20
2023/08/22 04:10:15;;;;;;;1.95;1.30;;;19.90;74.30;;;;;;4979648;28;20584;-19
2023/08/22 04:12:40;;;;;;;1.58;1.40;;;19.90;74.30;;;;;;4978486;28;20026;-20
2023/08/22 04:15:08;;;;;;;1.70;1.20;;;19.90;74.30;;;;;;4964028;28;20511;-19
2023/08/22 04:17:34;;;;;;;1.73;1.45;;;19.90;74.30;;;;;;4994574;28;20498;-20
2023/08/22 04:20:00;;;;;;;1.52;1.27;;;19.80;74.20;;;;;;4976209;28;20195;-19
2023/08/22 04:22:26;;;;;;;2.43;1.30;;;19.80;74.20;;;;;;4959290;28;20026;-19
2023/08/22 04:24:52;;;;;;;1.73;1.10;;;19.80;74.20;;;;;;4966405;28;20049;-19
2023/08/22 04:27:18;;;;;;;2.00;1.30;;;19.70;74.10;;;;;;4979019;28;20034;-19
2023/08/22 04:29:44;;;;;;;1.80;1.20;;;19.70;74.20;;;;;;4973511;28;20034;-20
2023/08/22 04:32:09;;;;;;;2.13;1.30;;;19.70;74.20;;;;;;4952325;28;20037;-22
2023/08/22 04:34:35;;;;;;;1.73;1.23;;;19.60;74.20;;;;;;4969078;28;20094;-23
2023/08/22 04:37:01;;;;;;;2.37;1.10;;;19.60;74.30;;;;;;4877012;28;20296;-22
2023/08/22 04:39:26;;;;;;;1.42;1.23;;;19.60;74.30;;;;;;4956118;28;20105;-21
2023/08/22 04:41:52;;;;;;;1.60;1.23;;;19.50;74.40;;;;;;4958407;28;20063;-22
2023/08/22 04:44:18;;;;;;;2.45;1.50;;;19.50;74.40;;;;;;4899634;28;20072;-21
2023/08/22 04:46:44;;;;;;;2.07;1.37;;;19.40;74.50;;;;;;4947760;28;20036;-22
2023/08/22 04:49:09;;;;;;;1.90;1.27;;;19.40;74.60;;;;;;4899675;28;20315;-20
2023/08/22 04:51:35;;;;;;;3.03;1.73;;;19.40;74.70;;;;;;4889342;28;20730;-20
2023/08/22 04:54:01;;;;;;;1.38;1.17;;;19.40;74.90;;;;;;4946282;28;20055;-19
2023/08/22 04:56:26;;;;;;;2.10;1.37;;;19.30;74.80;;;;;;4891576;28;20123;-20
2023/08/22 04:58:52;;;;;;;1.90;1.10;;;19.30;74.90;;;;;;4896193;29;20067;-19
2023/08/22 05:01:18;;;;;;;2.58;1.48;;;19.30;75.00;;;;;;4958222;28;20094;-19
2023/08/22 05:03:45;;;;;;;2.80;1.37;;;19.20;77.30;;;;;;4877769;28;20287;-19
2023/08/22 05:06:11;;;;;;;1.95;1.25;;;19.20;75.00;;;;;;4968287;28;20036;-20
2023/08/22 05:08:37;;;;;;;1.65;1.20;;;19.30;75.30;;;;;;4865926;28;20562;-19
2023/08/22 05:11:03;;;;;;;1.63;1.20;;;19.30;75.40;;;;;;4957063;28;20523;-19
2023/08/22 05:13:28;;;;;;;2.58;1.30;;;19.30;75.40;;;;;;4971700;28;20255;-19
2023/08/22 05:15:54;;;;;;;2.10;1.43;;;19.20;75.40;;;;;;4900696;28;20035;-19
2023/08/22 05:18:20;;;;;;;1.83;1.30;;;19.20;75.50;;;;;;4947647;28;20024;-20
2023/08/22 05:20:48;;;;;;;2.67;1.30;;;19.20;75.70;;;;;;4976696;28;20401;-19
2023/08/22 05:23:14;;;;;;;3.17;1.65;;;19.20;75.80;;;;;;4892672;28;20568;-20
2023/08/22 05:25:40;;;;;;;1.83;1.30;;;19.20;76.00;;;;;;4920689;28;20116;-19
2023/08/22 05:28:06;;;;;;;1.50;1.20;;;19.20;76.00;;;;;;4902238;28;20448;-19
2023/08/22 05:30:31;;;;;;;2.08;1.30;;;19.20;76.10;;;;;;4955993;28;20592;-19
2023/08/22 05:32:57;;;;;;;3.03;1.40;;;19.20;76.20;;;;;;4893601;28;20623;-19
2023/08/22 05:35:23;;;;;;;1.67;1.23;;;19.20;76.30;;;;;;4898315;28;20048;-20
2023/08/22 05:37:48;;;;;;;1.30;1.10;;;19.30;76.60;;;;;;4912721;28;20667;-19
2023/08/22 05:40:14;;;;;;;1.77;1.13;;;19.30;76.70;;;;;;4958710;28;20167;-20
2023/08/22 05:42:40;;;;;;;1.50;1.20;;;19.30;76.70;;;;;;4894221;28;20493;-18
2023/08/22 05:45:06;;;;;;;1.60;1.40;;;19.30;77.60;;;;;;4964156;28;20085;-19
2023/08/22 05:47:32;;;;;;;2.33;1.00;;;19.30;77.00;;;;;;4889271;28;20634;-19
2023/08/22 05:49:58;;;;;;;2.40;1.40;;;19.30;77.00;;;;;;4897150;28;20469;-19
2023/08/22 05:52:25;;;;;;;2.38;1.40;;;19.40;77.20;;;;;;4893943;28;20028;-19
2023/08/22 05:54:51;;;;;;;2.10;1.50;;;19.40;77.40;;;;;;4875875;28;20036;-19
2023/08/22 05:57:16;;;;;;;2.03;1.20;;;19.40;77.50;;;;;;4941999;28;20020;-19
2023/08/22 05:59:42;;;;;;;3.05;1.50;;;19.50;77.70;;;;;;4895946;28;20406;-20
2023/08/22 06:02:08;;;;;;;2.30;1.40;;;19.50;77.80;;;;;;4895613;28;20055;-19
2023/08/22 06:04:33;;;;;;;1.98;1.40;;;19.50;77.90;;;;;;4933144;28;20482;-20
2023/08/22 06:06:59;;;;;;;3.33;1.70;;;19.60;78.10;;;;;;4896575;28;20512;-19
2023/08/22 06:09:25;;;;;;;2.08;1.67;;;19.60;78.20;;;;;;4897713;28;20462;-19
2023/08/22 06:11:51;;;;;;;2.30;1.40;;;19.60;78.30;;;;;;4908665;28;20032;-19
2023/08/22 06:14:19;;;;;;;2.28;1.60;;;19.70;78.00;;;;;;4954837;28;20036;-19
2023/08/22 06:16:45;;;;;;;2.83;1.65;;;19.70;78.80;;;;;;4948533;28;20033;-22
2023/08/22 06:19:11;;;;;;;2.67;1.70;;;19.80;79.00;;;;;;4941239;28;20036;-22
2023/08/22 06:21:36;;;;;;;3.70;1.85;;;19.90;79.20;;;;;;4898065;28;20032;-21
2023/08/22 06:24:04;;;;;;;3.43;1.70;;;20.00;79.50;;;;;;4962831;28;20036;-22
2023/08/22 06:26:30;;;;;;;2.80;1.83;;;19.90;81.30;;;;;;4865119;28;20071;-22
2023/08/22 06:28:56;;;;;;;3.13;1.88;;;20.20;79.60;;;;;;4962357;28;20021;-22
2023/08/22 06:31:22;;;;;;;3.60;1.90;;;20.30;79.70;;;;;;4959948;28;20044;-22
2023/08/22 06:33:47;;;;;;;2.83;1.90;;;20.30;79.50;;;;;;4885972;28;20056;-22
2023/08/22 06:36:13;;;;;;;3.65;1.90;;;20.40;79.60;;;;;;4942757;28;20553;-22
2023/08/22 06:38:39;;;;;;;4.27;1.97;;;20.50;79.70;;;;;;4892842;28;20473;-22
2023/08/22 06:41:05;;;;;;;3.27;1.90;;;20.60;79.80;;;;;;4871648;28;21142;-22
2023/08/22 06:43:31;;;;;;;4.28;1.95;;;20.60;79.90;;;;;;4885338;28;20078;-22
2023/08/22 06:45:57;;;;;;;2.90;1.98;;;20.70;80.00;;;;;;4893574;28;20024;-21
2023/08/22 06:48:23;;;;;;;3.20;1.90;;;20.80;80.10;;;;;;4898442;28;20024;-22
2023/08/22 06:50:51;;;;;;;3.03;1.77;;;20.90;80.30;;;;;;4940372;28;20445;-22
2023/08/22 06:53:17;;;;;;;4.70;2.05;;;21.00;80.80;;;;;;4978252;28;20039;-22
2023/08/22 06:55:46;;;;;;;3.10;1.93;;;21.10;80.40;;;;;;4883784;28;20021;-22
2023/08/22 06:58:12;;;;;;;3.30;1.73;;;21.20;80.90;;;;;;4886902;28;20076;-22
2023/08/22 07:00:38;;;;;;;3.85;1.90;;;21.30;80.70;;;;;;4960264;28;20655;-22
2023/08/22 07:03:04;;;;;;;3.33;1.83;;;21.40;80.90;;;;;;4896600;28;20166;-22
2023/08/22 07:05:30;;;;;;;4.28;1.80;;;21.50;81.10;;;;;;4888520;28;20029;-22
2023/08/22 07:07:56;;;;;;;3.95;1.83;;;21.60;81.30;;;;;;4895421;28;20185;-21
2023/08/22 07:10:23;;;;;;;4.35;1.73;;;21.80;81.70;;;;;;4963324;28;20036;-22
2023/08/22 07:12:48;;;;;;;3.77;1.87;;;21.90;81.80;;;;;;4910791;28;20044;-22
2023/08/22 07:15:14;;;;;;;2.83;1.67;;;22.10;82.00;;;;;;4899670;28;20058;-22
2023/08/22 07:17:41;;;;;;;3.13;1.80;;;22.30;82.10;;;;;;4888427;28;20048;-23
2023/08/22 07:20:07;;;;;;;4.93;1.83;;;22.50;82.10;;;;;;4976506;28;20029;-19
2023/08/22 07:22:33;;;;;;;4.20;1.83;;;22.60;81.90;;;;;;4964894;28;20040;-20
2023/08/22 07:24:59;;;;;;;7.70;1.90;;;22.70;81.60;;;;;;4975429;28;20630;-20
2023/08/22 07:27:25;;;;;;;3.55;1.70;;;22.90;81.20;;;;;;4876540;29;20052;-20
2023/08/22 07:29:51;;;;;;;2.42;1.45;;;23.00;81.10;;;;;;4889309;28;20032;-19
2023/08/22 07:32:20;;;;;;;4.27;1.73;;;23.10;80.90;;;;;;4936154;28;20055;-19
2023/08/22 07:34:47;;;;;;;3.88;2.00;;;23.20;80.90;;;;;;4895375;28;20151;-18
2023/08/22 07:37:13;;;;;;;4.70;2.00;;;23.30;80.60;;;;;;4891596;28;20035;-20
2023/08/22 07:39:40;;;;;;;2.58;1.63;;;23.50;80.60;;;;;;4952247;28;20396;-20
2023/08/22 07:42:06;;;;;;;4.70;1.50;;;23.60;80.10;;;;;;4875569;28;20458;-19
2023/08/22 07:44:31;;;;;;;2.92;1.50;;;23.60;79.60;;;;;;4935696;28;20032;-20
2023/08/22 07:46:57;;;;;;;3.30;1.50;;;23.70;79.20;;;;;;4890765;28;20063;-19
2023/08/22 07:49:25;;;;;;;3.10;1.40;;;23.70;78.80;;;;;;4897523;28;20110;-20
2023/08/22 07:51:51;;;;;;;2.55;1.40;;;23.80;78.60;;;;;;4886000;28;20063;-20
2023/08/22 07:54:17;;;;;;;2.95;1.38;;;23.80;78.60;;;;;;4896908;28;20493;-18
2023/08/22 07:56:44;;;;;;;2.70;1.40;;;23.90;78.70;;;;;;4894218;29;20067;-19
2023/08/22 07:59:12;;;;;;;2.97;1.38;;;23.90;78.80;;;;;;4946269;28;20103;-19
2023/08/22 08:01:37;;;;;;;1.67;1.10;;;24.00;78.80;;;;;;4945191;28;20047;-20
2023/08/22 08:04:03;;;;;;;2.23;1.50;;;24.20;79.00;;;;;;4974337;28;20040;-19
2023/08/22 08:06:33;;;;;;;3.03;1.10;;;24.20;78.50;;;;;;4894034;29;20109;-20
2023/08/22 08:09:00;;;;;;;2.40;1.30;;;24.30;77.90;;;;;;4955398;28;20131;-20
2023/08/22 08:11:29;;;;;;;2.08;1.10;;;24.30;77.90;;;;;;4900777;28;20102;-20
2023/08/22 08:13:58;;;;;;;2.53;1.30;;;24.40;77.90;;;;;;4955067;28;20066;-19
2023/08/22 08:16:24;;;;;;;1.60;1.20;;;24.50;77.70;;;;;;4893165;28;20609;-20
2023/08/22 08:18:52;;;;;;;2.30;1.20;;;24.50;77.60;;;;;;4899790;28;20020;-19
2023/08/22 08:21:18;;;;;;;2.65;1.15;;;24.60;77.60;;;;;;4963720;28;20115;-19
2023/08/22 08:23:44;;;;;;;2.72;1.13;;;24.70;77.60;;;;;;4890379;28;20052;-22
2023/08/22 08:26:11;;;;;;;1.38;0.90;;;24.70;77.40;;;;;;4964538;28;20025;-21
2023/08/22 08:28:38;;;;;;;2.03;1.10;;;24.80;77.20;;;;;;4883743;28;20036;-22
2023/08/22 08:31:04;;;;;;;1.48;0.82;;;24.90;77.20;;;;;;4967462;28;20087;-21
2023/08/22 08:33:31;;;;;;;1.60;1.13;;;24.90;77.10;;;;;;4961285;28;20154;-23
2023/08/22 08:35:57;;;;;;;1.92;1.08;;;25.00;77.00;;;;;;4953883;28;20600;-22
2023/08/22 08:38:23;;;;;;;2.35;0.95;;;25.10;76.90;;;;;;4869747;28;20611;-20
2023/08/22 08:40:49;;;;;;;1.63;1.00;;;25.20;77.00;;;;;;4895109;28;20104;-19
2023/08/22 08:43:15;;;;;;;3.28;1.10;;;25.40;77.50;;;;;;4897101;28;20036;-19
2023/08/22 08:45:41;;;;;;;2.03;1.08;;;25.60;79.10;;;;;;4934312;28;20258;-19
2023/08/22 08:48:07;;;;;;;1.60;0.90;;;25.90;80.00;;;;;;4889805;28;20393;-20
2023/08/22 08:50:33;;;;;;;2.47;1.17;;;26.30;79.70;;;;;;4894796;28;20284;-20
2023/08/22 08:52:59;;;;;;;1.35;1.00;;;26.60;79.00;;;;;;4893483;29;20036;-20
2023/08/22 08:55:25;;;;;;;1.70;1.00;;;26.90;78.90;;;;;;4971507;28;20226;-21
2023/08/22 08:57:57;;;;;;;2.43;1.40;;;27.30;78.40;;;;;;4978982;28;20353;-21
2023/08/22 09:00:23;;;;;;;1.70;0.98;;;27.60;76.80;;;;;;4933402;28;20261;-21
2023/08/22 09:02:49;;;;;;;2.53;1.17;;;27.80;76.70;;;;;;4890726;28;21921;-21
2023/08/22 09:05:15;;;;;;;1.37;1.00;;;28.00;75.90;;;;;;4896702;28;20385;-21
2023/08/22 09:07:43;;;;;;;2.15;1.00;;;28.20;75.10;;;;;;4958811;28;20032;-21
2023/08/22 09:10:09;;;;;;;1.55;0.95;;;28.30;73.90;;;;;;4888505;28;20036;-21
2023/08/22 09:12:37;;;;;;;2.08;0.90;;;28.40;73.90;;;;;;4900069;28;20028;-21
2023/08/22 09:15:07;;;;;;;3.00;1.30;;;28.50;72.90;;;;;;4883935;28;20372;-21
2023/08/22 09:17:33;;;;;;;1.83;1.00;;;28.50;71.60;;;;;;4889137;28;20366;-21
2023/08/22 09:20:08;;;;;;;2.33;0.90;;;28.60;72.70;;;;;;4897130;28;20038;-21
2023/08/22 09:22:34;;;;;;;1.88;0.90;;;28.70;72.80;;;;;;4945820;28;20583;-21
2023/08/22 09:25:04;;;;;;;1.87;0.93;;;28.80;72.10;;;;;;4887948;28;20047;-21
2023/08/22 09:27:29;;;;;;;1.83;0.90;;;28.90;71.40;;;;;;4899656;28;20271;-21
2023/08/22 09:30:04;;;;;;;1.77;0.90;;;28.90;70.70;;;;;;4899959;28;20423;-21
2023/08/22 09:32:30;;;;;;;1.50;0.98;;;28.80;68.60;;;;;;4947580;28;20032;-21
2023/08/22 09:35:01;;;;;;;1.63;0.90;;;28.70;69.40;;;;;;4976795;28;20056;-20
2023/08/22 09:37:37;;;;;;;1.40;0.90;;;28.70;69.00;;;;;;4876238;28;20147;-21
2023/08/22 09:40:10;;;;;;;3.47;0.98;;;28.60;68.60;;;;;;4897992;28;20047;-21
2023/08/22 09:42:40;;;;;;;1.65;1.10;;;28.60;69.10;;;;;;4899760;28;20555;-21
2023/08/22 09:45:07;;;;;;;1.92;0.90;;;28.60;69.20;;;;;;4937402;28;20585;-21
2023/08/22 09:47:42;;;;;;;3.08;1.08;;;28.70;69.70;;;;;;4871535;28;20493;-21
2023/08/22 09:50:10;;;;;;;1.20;1.10;;;28.70;68.70;;;;;;4961195;28;20032;-21
2023/08/22 09:52:38;;;;;;;2.38;1.00;;;28.80;68.70;;;;;;4953199;28;20039;-21
2023/08/22 09:55:05;;;;;;;2.45;0.90;;;28.80;68.50;;;;;;4959109;28;20027;-21
2023/08/22 09:57:32;;;;;;;1.98;1.17;;;28.90;69.10;;;;;;4972154;28;20036;-21
2023/08/22 10:00:00;;;;;;;2.53;1.00;;;28.90;68.60;;;;;;4890760;29;20234;-21
2023/08/22 10:02:26;;;;;;;1.30;1.00;;;28.90;68.80;;;;;;4975581;28;20436;-21
2023/08/22 10:04:53;;;;;;;1.35;1.00;;;29.00;68.70;;;;;;4939614;28;20238;-21
2023/08/22 10:07:19;;;;;;;2.40;0.90;;;29.10;68.10;;;;;;4961398;28;20480;-19
2023/08/22 10:09:44;;;;;;;1.10;0.90;;;29.20;67.80;;;;;;4896759;28;20031;-19
2023/08/22 10:12:14;;;;;;;1.52;0.80;;;29.20;67.70;;;;;;4886900;28;20032;-20
2023/08/22 10:14:50;;;;;;;1.67;1.00;;;29.30;66.90;;;;;;4949765;28;20567;-20
2023/08/22 10:17:16;;;;;;;1.85;0.77;;;29.30;65.40;;;;;;4897183;28;20031;-21
2023/08/22 10:19:43;;;;;;;1.60;1.07;;;29.40;67.00;;;;;;4946137;28;20131;-23
2023/08/22 10:22:13;;;;;;;2.22;1.00;;;29.40;67.00;;;;;;4933871;28;20462;-22
2023/08/22 10:24:41;;;;;;;1.13;0.80;;;29.50;66.60;;;;;;4938914;28;20047;-23
2023/08/22 10:27:10;;;;;;;1.42;0.80;;;29.60;66.70;;;;;;4967261;28;20091;-22
2023/08/22 10:29:47;;;;;;;2.00;1.10;;;29.70;66.60;;;;;;4950747;28;20651;-23
2023/08/22 10:32:20;;;;;;;1.33;0.80;;;29.80;65.60;;;;;;4963345;28;20827;-22
2023/08/22 10:34:46;;;;;;;0.85;0.70;;;29.90;65.40;;;;;;4948308;28;20770;-21
2023/08/22 10:37:12;;;;;;;1.15;0.88;;;30.00;65.30;;;;;;4977648;28;20083;-19
2023/08/22 10:39:42;;;;;;;1.57;0.70;;;30.00;64.70;;;;;;4896056;29;20098;-20
2023/08/22 10:42:15;;;;;;;1.55;0.80;;;30.00;64.20;;;;;;4901238;28;20441;-19
2023/08/22 10:44:42;;;;;;;1.27;0.80;;;30.00;63.30;;;;;;4958248;28;20521;-20
2023/08/22 10:47:15;;;;;;;1.23;0.80;;;30.10;64.30;;;;;;4958280;28;20386;-19
2023/08/22 10:49:42;;;;;;;2.07;0.80;;;30.10;64.50;;;;;;4942426;28;20036;-20
2023/08/22 10:52:10;;;;;;;1.23;0.90;;;30.40;66.60;;;;;;4947194;28;20032;-19
2023/08/22 10:54:57;;;;;;;1.13;0.80;;;30.70;66.20;;;;;;4955359;28;20619;-20
2023/08/22 10:57:24;;;;;;;1.38;0.80;;;31.00;62.60;;;;;;4893267;28;20040;-20
2023/08/22 10:59:59;;;;;;;1.05;0.95;;;31.20;65.00;;;;;;4896734;28;20297;-18
2023/08/22 11:02:30;;;;;;;1.10;1.00;;;31.50;62.30;;;;;;4899553;28;20032;-20
2023/08/22 11:05:03;;;;;;;1.50;1.10;;;31.80;62.90;;;;;;4899757;29;20414;-19
2023/08/22 11:07:31;;;;;;;2.05;1.05;;;32.00;62.20;;;;;;4920094;28;20115;-21
2023/08/22 11:09:57;;;;;;;1.42;0.90;;;32.30;63.80;;;;;;4899792;28;20178;-21
2023/08/22 11:12:25;;;;;;;1.60;0.95;;;32.70;62.70;;;;;;4960782;28;20043;-21
2023/08/22 11:14:53;;;;;;;2.70;1.00;;;32.90;61.10;;;;;;4893009;28;20028;-21
2023/08/22 11:17:20;;;;;;;1.00;0.80;;;33.00;59.50;;;;;;4900105;28;20032;-19
2023/08/22 11:19:47;;;;;;;1.27;0.80;;;33.00;58.40;;;;;;4896657;29;20229;-17
2023/08/22 11:22:14;;;;;;;1.88;0.80;;;32.90;58.00;;;;;;4942325;28;20107;-20
2023/08/22 11:24:44;;;;;;;1.85;1.10;;;32.80;57.80;;;;;;4976292;28;20063;-19
2023/08/22 11:27:11;;;;;;;1.10;0.97;;;32.80;57.20;;;;;;4900870;29;20117;-19
2023/08/22 11:29:43;;;;;;;2.35;0.93;;;32.80;58.50;;;;;;4891847;29;20032;-20
2023/08/22 11:32:22;;;;;;;2.08;0.90;;;32.90;58.40;;;;;;4981270;28;20043;-19
2023/08/22 11:34:50;;;;;;;1.13;0.95;;;33.20;57.80;;;;;;4897337;28;20806;-19
2023/08/22 11:37:17;;;;;;;1.70;0.90;;;33.40;58.40;;;;;;4923069;28;20050;-20
2023/08/22 11:39:47;;;;;;;1.00;0.90;;;33.60;57.80;;;;;;4889783;28;20646;-21
2023/08/22 11:42:18;;;;;;;1.50;1.00;;;33.70;56.40;;;;;;4873928;28;20243;-19
2023/08/22 11:45:07;;;;;;;1.13;1.00;;;33.70;55.50;;;;;;4967415;28;20041;-20
2023/08/22 11:47:47;;;;;;;1.80;0.90;;;33.70;53.90;;;;;;4881832;28;20036;-20
2023/08/22 11:50:15;;;;;;;1.88;0.80;;;33.70;53.40;;;;;;4898508;28;20044;-20
2023/08/22 11:52:42;;;;;;;1.43;0.80;;;33.50;54.00;;;;;;4938712;28;21275;-19
2023/08/22 11:55:10;;;;;;;1.00;0.90;;;33.30;54.20;;;;;;4975997;28;20120;-19
2023/08/22 11:57:38;;;;;;;0.80;0.80;;;33.00;53.20;;;;;;4936003;28;20216;-20
2023/08/22 12:00:06;;;;;;;0.70;0.70;;;32.70;52.60;;;;;;4891825;28;20469;-20
2023/08/22 12:02:33;;;;;;;0.88;0.88;;;32.50;52.70;;;;;;4973157;28;20075;-20
2023/08/22 12:04:59;;;;;;;0.77;0.73;;;32.20;52.80;;;;;;4898957;28;20040;-19
2023/08/22 12:07:25;;;;;;;1.13;0.70;;;31.90;53.60;;;;;;4883049;28;20508;-20
2023/08/22 12:10:00;;;;;;;1.40;0.80;;;31.70;53.10;;;;;;4938175;28;20025;-19
2023/08/22 12:12:27;;;;;;;2.40;0.75;;;31.50;52.80;;;;;;4935392;28;20481;-20
2023/08/22 12:14:52;;;;;;;0.80;0.70;;;31.30;53.20;;;;;;4884732;28;20640;-20
2023/08/22 12:17:18;;;;;;;1.08;0.70;;;31.10;53.20;;;;;;4897615;28;20020;-20
2023/08/22 12:19:44;;;;;;;1.17;0.73;;;31.00;53.30;;;;;;4958655;28;20036;-20
2023/08/22 12:22:10;;;;;;;0.70;0.70;;;30.90;53.80;;;;;;4963936;28;20036;-20
2023/08/22 12:24:36;;;;;;;1.40;0.93;;;30.80;54.00;;;;;;4874809;28;20388;-21
2023/08/22 12:27:02;;;;;;;1.52;0.82;;;30.70;54.00;;;;;;4901023;28;20725;-20
2023/08/22 12:29:28;;;;;;;1.10;0.70;;;30.70;54.20;;;;;;4881031;28;20028;-19
2023/08/22 12:31:53;;;;;;;0.70;0.70;;;30.70;54.50;;;;;;4901379;28;20086;-19
2023/08/22 12:34:19;;;;;;;0.70;0.70;;;30.80;55.00;;;;;;4900778;28;20032;-20
2023/08/22 12:36:45;;;;;;;0.87;0.80;;;31.00;55.40;;;;;;4963235;28;20071;-19
2023/08/22 12:39:12;;;;;;;0.65;0.65;;;31.20;55.20;;;;;;4896623;28;20111;-20
2023/08/22 12:41:38;;;;;;;0.85;0.65;;;31.30;55.10;;;;;;4882848;28;20078;-20
2023/08/22 12:44:04;;;;;;;0.80;0.60;;;31.50;54.60;;;;;;4894284;28;20047;-21
2023/08/22 12:46:31;;;;;;;1.05;0.90;;;31.60;54.20;;;;;;4888347;28;20059;-22